Southboro, Massachusetts
Current Conditions -  °F | °C
As of 9:56 PM on Tuesday 25 Nov 2014 (Local Time) from KBED Reporting Station
Clear Clear  
Wind Chill: 37°   Ceiling: Unl
Heat Index: 40°   Visibility: 10mi
Dew Point: 30°   Wind: 5mph
Humidity: 68%   Direction: 240°WSW
Pressure: 30.06"   Gusts: NA
Location:  42.3002°N, 71.5323°W
Report Text: KBED 260256Z 24004KT 10SM CLR 04/M01 A3006 RMK AO2 SLP194 T00441011 51026
Loading
Personal Weather Stations






























Interactive Weather Map New forecast layout! Learn more

10-Day Weather Forecast

Advertisements
Track Severe Weather on mobile